sensor_id;sensor_type;location;lat;lon;timestamp;P1;durP1;ratioP1;P2;durP2;ratioP2
54191;SDS011;40101;53.002;6.488;2023-04-01T00:02:14;9.93;;;7.63;;
54191;SDS011;40101;53.002;6.488;2023-04-01T00:04:40;9.20;;;7.55;;
54191;SDS011;40101;53.002;6.488;2023-04-01T00:07:06;10.45;;;7.65;;
54191;SDS011;40101;53.002;6.488;2023-04-01T00:09:31;9.52;;;8.20;;
54191;SDS011;40101;53.002;6.488;2023-04-01T00:11:57;10.00;;;7.65;;
54191;SDS011;40101;53.002;6.488;2023-04-01T00:14:23;9.20;;;6.65;;
54191;SDS011;40101;53.002;6.488;2023-04-01T00:16:51;9.93;;;7.63;;
54191;SDS011;40101;53.002;6.488;2023-04-01T00:19:17;8.25;;;7.35;;
54191;SDS011;40101;53.002;6.488;2023-04-01T00:21:56;11.18;;;7.68;;
54191;SDS011;40101;53.002;6.488;2023-04-01T00:24:24;12.07;;;8.25;;
54191;SDS011;40101;53.002;6.488;2023-04-01T00:26:56;10.05;;;7.68;;
54191;SDS011;40101;53.002;6.488;2023-04-01T00:29:25;7.88;;;6.95;;
54191;SDS011;40101;53.002;6.488;2023-04-01T00:31:56;7.90;;;7.07;;
54191;SDS011;40101;53.002;6.488;2023-04-01T00:34:22;8.63;;;7.40;;
54191;SDS011;40101;53.002;6.488;2023-04-01T00:36:48;10.90;;;8.13;;
54191;SDS011;40101;53.002;6.488;2023-04-01T00:39:20;10.75;;;6.88;;
54191;SDS011;40101;53.002;6.488;2023-04-01T00:42:23;8.43;;;7.20;;
54191;SDS011;40101;53.002;6.488;2023-04-01T00:44:53;10.10;;;7.72;;
54191;SDS011;40101;53.002;6.488;2023-04-01T00:47:20;9.93;;;8.00;;
54191;SDS011;40101;53.002;6.488;2023-04-01T00:50:05;10.98;;;7.68;;
54191;SDS011;40101;53.002;6.488;2023-04-01T00:52:40;9.23;;;7.10;;
54191;SDS011;40101;53.002;6.488;2023-04-01T00:55:19;8.35;;;6.88;;
54191;SDS011;40101;53.002;6.488;2023-04-01T00:57:54;8.55;;;7.68;;
54191;SDS011;40101;53.002;6.488;2023-04-01T01:00:24;9.00;;;7.47;;
54191;SDS011;40101;53.002;6.488;2023-04-01T01:02:51;7.80;;;6.75;;
54191;SDS011;40101;53.002;6.488;2023-04-01T01:05:22;7.70;;;6.90;;
54191;SDS011;40101;53.002;6.488;2023-04-01T01:08:03;7.35;;;6.65;;
54191;SDS011;40101;53.002;6.488;2023-04-01T01:10:42;9.20;;;7.05;;
54191;SDS011;40101;53.002;6.488;2023-04-01T01:16:27;10.75;;;6.70;;
54191;SDS011;40101;53.002;6.488;2023-04-01T01:21:32;9.10;;;8.00;;
54191;SDS011;40101;53.002;6.488;2023-04-01T01:27:02;10.43;;;7.75;;
54191;SDS011;40101;53.002;6.488;2023-04-01T01:35:43;9.77;;;7.53;;
54191;SDS011;40101;53.002;6.488;2023-04-01T01:38:16;8.32;;;6.93;;
54191;SDS011;40101;53.002;6.488;2023-04-01T01:40:46;8.98;;;7.68;;
54191;SDS011;40101;53.002;6.488;2023-04-01T01:43:17;9.82;;;6.32;;
54191;SDS011;40101;53.002;6.488;2023-04-01T01:45:48;6.60;;;5.13;;
54191;SDS011;40101;53.002;6.488;2023-04-01T01:48:17;5.22;;;4.70;;
54191;SDS011;40101;53.002;6.488;2023-04-01T01:50:45;5.63;;;4.97;;
54191;SDS011;40101;53.002;6.488;2023-04-01T01:53:13;8.25;;;5.57;;
54191;SDS011;40101;53.002;6.488;2023-04-01T01:55:43;6.60;;;4.82;;
54191;SDS011;40101;53.002;6.488;2023-04-01T01:58:20;5.82;;;3.47;;
54191;SDS011;40101;53.002;6.488;2023-04-01T02:00:56;3.35;;;2.63;;
54191;SDS011;40101;53.002;6.488;2023-04-01T02:03:29;3.13;;;2.83;;
54191;SDS011;40101;53.002;6.488;2023-04-01T02:05:59;2.47;;;2.28;;
54191;SDS011;40101;53.002;6.488;2023-04-01T02:08:29;2.05;;;1.80;;
54191;SDS011;40101;53.002;6.488;2023-04-01T02:11:10;3.60;;;1.92;;
54191;SDS011;40101;53.002;6.488;2023-04-01T02:13:48;2.20;;;1.77;;
54191;SDS011;40101;53.002;6.488;2023-04-01T02:25:44;4.90;;;3.97;;
54191;SDS011;40101;53.002;6.488;2023-04-01T02:28:46;4.38;;;3.83;;
54191;SDS011;40101;53.002;6.488;2023-04-01T02:31:18;5.05;;;3.85;;
54191;SDS011;40101;53.002;6.488;2023-04-01T02:33:44;4.60;;;3.72;;
54191;SDS011;40101;53.002;6.488;2023-04-01T02:36:38;4.60;;;3.72;;
54191;SDS011;40101;53.002;6.488;2023-04-01T02:39:10;4.68;;;3.63;;
54191;SDS011;40101;53.002;6.488;2023-04-01T02:41:59;4.18;;;3.60;;
54191;SDS011;40101;53.002;6.488;2023-04-01T02:47:32;5.60;;;4.65;;
54191;SDS011;40101;53.002;6.488;2023-04-01T02:50:03;9.25;;;4.45;;
54191;SDS011;40101;53.002;6.488;2023-04-01T02:52:30;8.38;;;5.38;;
54191;SDS011;40101;53.002;6.488;2023-04-01T02:54:56;5.20;;;4.05;;
54191;SDS011;40101;53.002;6.488;2023-04-01T02:57:38;8.02;;;4.63;;
54191;SDS011;40101;53.002;6.488;2023-04-01T03:00:06;4.65;;;3.78;;
54191;SDS011;40101;53.002;6.488;2023-04-01T03:13:50;2.75;;;2.22;;
54191;SDS011;40101;53.002;6.488;2023-04-01T03:16:26;2.95;;;2.20;;
54191;SDS011;40101;53.002;6.488;2023-04-01T03:34:06;1.27;;;0.75;;
54191;SDS011;40101;53.002;6.488;2023-04-01T03:45:46;2.35;;;1.05;;
54191;SDS011;40101;53.002;6.488;2023-04-01T03:48:23;2.47;;;1.38;;
54191;SDS011;40101;53.002;6.488;2023-04-01T03:50:49;2.20;;;1.67;;
54191;SDS011;40101;53.002;6.488;2023-04-01T03:53:14;3.13;;;1.83;;
54191;SDS011;40101;53.002;6.488;2023-04-01T03:55:47;5.00;;;2.95;;
54191;SDS011;40101;53.002;6.488;2023-04-01T03:58:22;6.38;;;3.20;;
54191;SDS011;40101;53.002;6.488;2023-04-01T04:00:51;5.60;;;3.75;;
54191;SDS011;40101;53.002;6.488;2023-04-01T04:03:23;7.97;;;5.40;;
54191;SDS011;40101;53.002;6.488;2023-04-01T04:05:52;9.10;;;7.28;;
54191;SDS011;40101;53.002;6.488;2023-04-01T04:08:17;11.25;;;8.10;;
54191;SDS011;40101;53.002;6.488;2023-04-01T04:10:54;13.35;;;8.63;;
54191;SDS011;40101;53.002;6.488;2023-04-01T04:13:27;14.35;;;9.18;;
54191;SDS011;40101;53.002;6.488;2023-04-01T04:15:53;10.35;;;8.15;;
54191;SDS011;40101;53.002;6.488;2023-04-01T04:18:19;15.57;;;9.57;;
54191;SDS011;40101;53.002;6.488;2023-04-01T04:20:45;14.93;;;9.80;;
54191;SDS011;40101;53.002;6.488;2023-04-01T04:27:16;12.55;;;9.50;;
54191;SDS011;40101;53.002;6.488;2023-04-01T04:30:17;14.25;;;9.27;;
54191;SDS011;40101;53.002;6.488;2023-04-01T04:54:31;11.50;;;8.13;;
54191;SDS011;40101;53.002;6.488;2023-04-01T04:56:56;12.90;;;8.77;;
54191;SDS011;40101;53.002;6.488;2023-04-01T04:59:24;12.95;;;9.57;;
54191;SDS011;40101;53.002;6.488;2023-04-01T05:01:53;11.80;;;8.45;;
54191;SDS011;40101;53.002;6.488;2023-04-01T05:04:21;12.88;;;9.32;;
54191;SDS011;40101;53.002;6.488;2023-04-01T05:06:47;14.32;;;9.48;;
54191;SDS011;40101;53.002;6.488;2023-04-01T05:09:12;13.10;;;9.52;;
54191;SDS011;40101;53.002;6.488;2023-04-01T05:11:38;14.30;;;9.45;;
54191;SDS011;40101;53.002;6.488;2023-04-01T05:14:05;13.43;;;9.43;;
54191;SDS011;40101;53.002;6.488;2023-04-01T05:16:31;15.30;;;10.40;;
54191;SDS011;40101;53.002;6.488;2023-04-01T05:18:56;14.80;;;10.23;;
54191;SDS011;40101;53.002;6.488;2023-04-01T05:21:22;14.13;;;10.18;;
54191;SDS011;40101;53.002;6.488;2023-04-01T05:23:51;12.98;;;9.20;;
54191;SDS011;40101;53.002;6.488;2023-04-01T05:26:17;14.80;;;9.98;;
54191;SDS011;40101;53.002;6.488;2023-04-01T05:28:43;12.57;;;9.45;;
54191;SDS011;40101;53.002;6.488;2023-04-01T05:31:09;16.63;;;10.35;;
54191;SDS011;40101;53.002;6.488;2023-04-01T05:33:35;15.35;;;10.05;;
54191;SDS011;40101;53.002;6.488;2023-04-01T05:36:11;16.00;;;10.68;;
54191;SDS011;40101;53.002;6.488;2023-04-01T05:38:39;17.42;;;11.13;;
54191;SDS011;40101;53.002;6.488;2023-04-01T05:41:05;16.60;;;11.23;;
54191;SDS011;40101;53.002;6.488;2023-04-01T05:43:31;17.38;;;11.77;;
54191;SDS011;40101;53.002;6.488;2023-04-01T05:45:57;19.80;;;12.13;;
54191;SDS011;40101;53.002;6.488;2023-04-01T05:48:25;19.35;;;12.52;;
54191;SDS011;40101;53.002;6.488;2023-04-01T05:51:02;18.02;;;12.32;;
54191;SDS011;40101;53.002;6.488;2023-04-01T05:53:28;20.48;;;12.68;;
54191;SDS011;40101;53.002;6.488;2023-04-01T05:55:54;18.65;;;11.20;;
54191;SDS011;40101;53.002;6.488;2023-04-01T05:58:23;19.13;;;12.80;;
54191;SDS011;40101;53.002;6.488;2023-04-01T06:00:51;15.27;;;10.60;;
54191;SDS011;40101;53.002;6.488;2023-04-01T06:03:40;14.07;;;9.73;;
54191;SDS011;40101;53.002;6.488;2023-04-01T06:06:11;13.40;;;10.00;;
54191;SDS011;40101;53.002;6.488;2023-04-01T06:09:06;13.00;;;8.80;;
54191;SDS011;40101;53.002;6.488;2023-04-01T06:12:29;10.25;;;7.63;;
54191;SDS011;40101;53.002;6.488;2023-04-01T06:29:57;5.47;;;4.20;;
54191;SDS011;40101;53.002;6.488;2023-04-01T06:32:42;4.70;;;4.18;;
54191;SDS011;40101;53.002;6.488;2023-04-01T06:41:04;6.43;;;5.22;;
54191;SDS011;40101;53.002;6.488;2023-04-01T06:43:40;6.00;;;5.13;;
54191;SDS011;40101;53.002;6.488;2023-04-01T06:46:36;8.40;;;6.32;;
54191;SDS011;40101;53.002;6.488;2023-04-01T06:58:13;22.45;;;14.07;;
54191;SDS011;40101;53.002;6.488;2023-04-01T07:01:01;23.80;;;14.85;;
54191;SDS011;40101;53.002;6.488;2023-04-01T07:13:20;22.95;;;16.17;;
54191;SDS011;40101;53.002;6.488;2023-04-01T07:24:36;26.35;;;16.80;;
54191;SDS011;40101;53.002;6.488;2023-04-01T07:27:10;25.33;;;16.27;;
54191;SDS011;40101;53.002;6.488;2023-04-01T07:29:37;23.15;;;16.60;;
54191;SDS011;40101;53.002;6.488;2023-04-01T07:35:28;25.23;;;16.35;;
54191;SDS011;40101;53.002;6.488;2023-04-01T07:43:33;28.27;;;17.40;;
54191;SDS011;40101;53.002;6.488;2023-04-01T07:46:27;26.48;;;18.65;;
54191;SDS011;40101;53.002;6.488;2023-04-01T07:49:08;23.58;;;17.90;;
54191;SDS011;40101;53.002;6.488;2023-04-01T07:54:55;25.15;;;17.50;;
54191;SDS011;40101;53.002;6.488;2023-04-01T07:57:28;24.77;;;17.98;;
54191;SDS011;40101;53.002;6.488;2023-04-01T08:00:09;25.52;;;17.98;;
54191;SDS011;40101;53.002;6.488;2023-04-01T08:05:41;25.10;;;17.58;;
54191;SDS011;40101;53.002;6.488;2023-04-01T08:14:04;22.20;;;17.00;;
54191;SDS011;40101;53.002;6.488;2023-04-01T08:16:55;23.33;;;16.33;;
54191;SDS011;40101;53.002;6.488;2023-04-01T08:19:30;24.02;;;18.55;;
54191;SDS011;40101;53.002;6.488;2023-04-01T08:22:29;24.60;;;18.45;;
54191;SDS011;40101;53.002;6.488;2023-04-01T08:25:02;20.75;;;16.25;;
54191;SDS011;40101;53.002;6.488;2023-04-01T08:27:44;19.77;;;16.20;;
54191;SDS011;40101;53.002;6.488;2023-04-01T08:36:14;21.10;;;17.30;;
54191;SDS011;40101;53.002;6.488;2023-04-01T08:53:39;14.93;;;12.98;;
54191;SDS011;40101;53.002;6.488;2023-04-01T08:56:20;14.45;;;12.68;;
54191;SDS011;40101;53.002;6.488;2023-04-01T09:04:50;16.10;;;12.98;;
54191;SDS011;40101;53.002;6.488;2023-04-01T09:07:52;16.52;;;13.32;;
54191;SDS011;40101;53.002;6.488;2023-04-01T09:13:27;15.18;;;12.95;;
54191;SDS011;40101;53.002;6.488;2023-04-01T09:38:17;15.60;;;13.73;;
54191;SDS011;40101;53.002;6.488;2023-04-01T09:40:57;19.10;;;13.90;;
54191;SDS011;40101;53.002;6.488;2023-04-01T10:02:05;12.88;;;10.52;;
54191;SDS011;40101;53.002;6.488;2023-04-01T10:27:22;10.63;;;4.60;;
54191;SDS011;40101;53.002;6.488;2023-04-01T10:41:39;4.40;;;4.00;;
54191;SDS011;40101;53.002;6.488;2023-04-01T10:52:56;6.05;;;4.65;;
54191;SDS011;40101;53.002;6.488;2023-04-01T11:04:04;5.00;;;3.83;;
54191;SDS011;40101;53.002;6.488;2023-04-01T11:13:30;3.50;;;3.05;;
54191;SDS011;40101;53.002;6.488;2023-04-01T11:28:15;2.92;;;2.63;;
54191;SDS011;40101;53.002;6.488;2023-04-01T11:30:57;2.97;;;2.53;;
54191;SDS011;40101;53.002;6.488;2023-04-01T11:44:26;2.85;;;2.65;;
54191;SDS011;40101;53.002;6.488;2023-04-01T12:44:33;3.55;;;2.17;;
54191;SDS011;40101;53.002;6.488;2023-04-01T13:00:48;2.92;;;2.38;;
54191;SDS011;40101;53.002;6.488;2023-04-01T13:11:48;3.13;;;2.83;;
54191;SDS011;40101;53.002;6.488;2023-04-01T13:37:02;3.17;;;2.35;;
54191;SDS011;40101;53.002;6.488;2023-04-01T13:46:04;1.70;;;1.42;;
54191;SDS011;40101;53.002;6.488;2023-04-01T13:48:48;4.70;;;2.80;;
54191;SDS011;40101;53.002;6.488;2023-04-01T13:52:05;2.65;;;2.13;;
54191;SDS011;40101;53.002;6.488;2023-04-01T14:11:19;1.65;;;1.55;;
54191;SDS011;40101;53.002;6.488;2023-04-01T14:19:00;1.92;;;1.75;;
54191;SDS011;40101;53.002;6.488;2023-04-01T14:21:33;1.45;;;1.35;;
54191;SDS011;40101;53.002;6.488;2023-04-01T14:35:25;1.95;;;1.70;;
54191;SDS011;40101;53.002;6.488;2023-04-01T14:38:28;2.88;;;1.80;;
54191;SDS011;40101;53.002;6.488;2023-04-01T14:49:17;1.60;;;1.50;;
54191;SDS011;40101;53.002;6.488;2023-04-01T14:51:49;1.58;;;1.48;;
54191;SDS011;40101;53.002;6.488;2023-04-01T14:54:18;2.63;;;1.50;;
54191;SDS011;40101;53.002;6.488;2023-04-01T15:00:28;2.90;;;2.17;;
54191;SDS011;40101;53.002;6.488;2023-04-01T15:11:14;2.40;;;2.20;;
54191;SDS011;40101;53.002;6.488;2023-04-01T15:13:48;2.80;;;2.22;;
54191;SDS011;40101;53.002;6.488;2023-04-01T15:22:31;1.80;;;1.70;;
54191;SDS011;40101;53.002;6.488;2023-04-01T15:30:29;1.50;;;1.40;;
54191;SDS011;40101;53.002;6.488;2023-04-01T15:33:10;3.45;;;1.63;;
54191;SDS011;40101;53.002;6.488;2023-04-01T15:35:49;2.22;;;2.03;;
54191;SDS011;40101;53.002;6.488;2023-04-01T15:43:40;5.20;;;2.50;;
